sensor_id;sensor_type;location;lat;lon;timestamp;P1;durP1;ratioP1;P2;durP2;ratioP2
11588;SDS011;5850;51.360;12.362;2022-11-15T00:01:21;17.37;;;13.70;;
11588;SDS011;5850;51.360;12.362;2022-11-15T00:03:53;15.97;;;11.70;;
11588;SDS011;5850;51.360;12.362;2022-11-15T00:06:21;16.03;;;12.47;;
11588;SDS011;5850;51.360;12.362;2022-11-15T00:08:49;14.57;;;11.53;;
11588;SDS011;5850;51.360;12.362;2022-11-15T00:11:18;15.20;;;11.80;;
11588;SDS011;5850;51.360;12.362;2022-11-15T00:13:46;17.17;;;11.83;;
11588;SDS011;5850;51.360;12.362;2022-11-15T00:16:14;14.63;;;10.83;;
11588;SDS011;5850;51.360;12.362;2022-11-15T00:18:43;16.63;;;11.83;;
11588;SDS011;5850;51.360;12.362;2022-11-15T00:21:16;14.87;;;11.27;;
11588;SDS011;5850;51.360;12.362;2022-11-15T00:23:44;15.47;;;11.50;;
11588;SDS011;5850;51.360;12.362;2022-11-15T00:26:14;15.10;;;11.73;;
11588;SDS011;5850;51.360;12.362;2022-11-15T00:28:42;13.80;;;10.80;;
11588;SDS011;5850;51.360;12.362;2022-11-15T00:31:12;16.43;;;10.93;;
11588;SDS011;5850;51.360;12.362;2022-11-15T00:33:42;12.67;;;10.50;;
11588;SDS011;5850;51.360;12.362;2022-11-15T00:36:11;13.37;;;10.43;;
11588;SDS011;5850;51.360;12.362;2022-11-15T00:38:40;12.93;;;10.57;;
11588;SDS011;5850;51.360;12.362;2022-11-15T00:41:08;13.57;;;10.60;;
11588;SDS011;5850;51.360;12.362;2022-11-15T00:43:37;12.87;;;10.30;;
11588;SDS011;5850;51.360;12.362;2022-11-15T00:46:06;13.37;;;9.87;;
11588;SDS011;5850;51.360;12.362;2022-11-15T00:48:36;12.33;;;9.90;;
11588;SDS011;5850;51.360;12.362;2022-11-15T00:51:04;14.63;;;10.37;;
11588;SDS011;5850;51.360;12.362;2022-11-15T00:53:33;14.03;;;10.50;;
11588;SDS011;5850;51.360;12.362;2022-11-15T00:56:02;13.70;;;10.07;;
11588;SDS011;5850;51.360;12.362;2022-11-15T00:58:30;13.93;;;10.27;;
11588;SDS011;5850;51.360;12.362;2022-11-15T01:01:05;13.13;;;10.53;;
11588;SDS011;5850;51.360;12.362;2022-11-15T01:03:39;14.77;;;9.80;;
11588;SDS011;5850;51.360;12.362;2022-11-15T01:06:09;13.33;;;10.60;;
11588;SDS011;5850;51.360;12.362;2022-11-15T01:08:41;14.67;;;10.07;;
11588;SDS011;5850;51.360;12.362;2022-11-15T01:11:10;16.60;;;9.93;;
11588;SDS011;5850;51.360;12.362;2022-11-15T01:13:39;11.97;;;9.27;;
11588;SDS011;5850;51.360;12.362;2022-11-15T01:16:17;12.57;;;9.70;;
11588;SDS011;5850;51.360;12.362;2022-11-15T01:18:46;13.17;;;9.90;;
11588;SDS011;5850;51.360;12.362;2022-11-15T01:21:15;13.80;;;10.53;;
11588;SDS011;5850;51.360;12.362;2022-11-15T01:23:45;12.00;;;9.80;;
11588;SDS011;5850;51.360;12.362;2022-11-15T01:26:15;13.43;;;10.00;;
11588;SDS011;5850;51.360;12.362;2022-11-15T01:28:43;13.13;;;10.27;;
11588;SDS011;5850;51.360;12.362;2022-11-15T01:31:13;12.03;;;9.63;;
11588;SDS011;5850;51.360;12.362;2022-11-15T01:33:45;13.53;;;10.37;;
11588;SDS011;5850;51.360;12.362;2022-11-15T01:36:19;12.23;;;9.33;;
11588;SDS011;5850;51.360;12.362;2022-11-15T01:38:56;14.53;;;9.77;;
11588;SDS011;5850;51.360;12.362;2022-11-15T01:41:27;13.33;;;9.87;;
11588;SDS011;5850;51.360;12.362;2022-11-15T01:49:48;13.43;;;9.37;;
11588;SDS011;5850;51.360;12.362;2022-11-15T01:52:25;13.37;;;10.30;;
11588;SDS011;5850;51.360;12.362;2022-11-15T01:55:02;12.47;;;9.10;;
11588;SDS011;5850;51.360;12.362;2022-11-15T01:57:35;13.63;;;9.40;;
11588;SDS011;5850;51.360;12.362;2022-11-15T02:00:05;13.53;;;9.30;;
11588;SDS011;5850;51.360;12.362;2022-11-15T02:02:34;12.97;;;9.83;;
11588;SDS011;5850;51.360;12.362;2022-11-15T02:05:05;13.17;;;9.73;;
11588;SDS011;5850;51.360;12.362;2022-11-15T02:07:34;16.03;;;9.57;;
11588;SDS011;5850;51.360;12.362;2022-11-15T02:10:06;13.53;;;9.60;;
11588;SDS011;5850;51.360;12.362;2022-11-15T02:12:41;13.63;;;10.20;;
11588;SDS011;5850;51.360;12.362;2022-11-15T02:15:09;12.23;;;9.30;;
11588;SDS011;5850;51.360;12.362;2022-11-15T02:26:40;12.77;;;8.70;;
11588;SDS011;5850;51.360;12.362;2022-11-15T02:35:02;12.03;;;8.73;;
11588;SDS011;5850;51.360;12.362;2022-11-15T02:37:57;12.80;;;9.63;;
11588;SDS011;5850;51.360;12.362;2022-11-15T02:40:52;13.27;;;9.60;;
11588;SDS011;5850;51.360;12.362;2022-11-15T02:43:29;14.37;;;10.10;;
11588;SDS011;5850;51.360;12.362;2022-11-15T02:49:25;14.57;;;9.53;;
11588;SDS011;5850;51.360;12.362;2022-11-15T02:51:56;13.60;;;9.13;;
11588;SDS011;5850;51.360;12.362;2022-11-15T02:54:26;12.40;;;9.27;;
11588;SDS011;5850;51.360;12.362;2022-11-15T02:57:10;12.93;;;9.60;;
11588;SDS011;5850;51.360;12.362;2022-11-15T02:59:47;12.97;;;8.90;;
11588;SDS011;5850;51.360;12.362;2022-11-15T03:05:19;12.37;;;8.93;;
11588;SDS011;5850;51.360;12.362;2022-11-15T03:13:38;12.90;;;9.07;;
11588;SDS011;5850;51.360;12.362;2022-11-15T03:16:19;13.13;;;8.83;;
11588;SDS011;5850;51.360;12.362;2022-11-15T03:19:08;12.73;;;8.53;;
11588;SDS011;5850;51.360;12.362;2022-11-15T03:21:47;12.87;;;8.57;;
11588;SDS011;5850;51.360;12.362;2022-11-15T03:24:15;11.67;;;8.57;;
11588;SDS011;5850;51.360;12.362;2022-11-15T03:26:51;15.27;;;9.20;;
11588;SDS011;5850;51.360;12.362;2022-11-15T03:29:27;11.33;;;8.57;;
11588;SDS011;5850;51.360;12.362;2022-11-15T03:32:05;12.67;;;9.10;;
11588;SDS011;5850;51.360;12.362;2022-11-15T03:34:50;10.60;;;7.97;;
11588;SDS011;5850;51.360;12.362;2022-11-15T03:37:26;11.83;;;7.90;;
11588;SDS011;5850;51.360;12.362;2022-11-15T03:40:05;11.00;;;7.80;;
11588;SDS011;5850;51.360;12.362;2022-11-15T03:42:48;11.80;;;8.50;;
11588;SDS011;5850;51.360;12.362;2022-11-15T03:45:33;11.70;;;8.40;;
11588;SDS011;5850;51.360;12.362;2022-11-15T03:48:14;11.47;;;8.73;;
11588;SDS011;5850;51.360;12.362;2022-11-15T03:50:53;9.97;;;7.73;;
11588;SDS011;5850;51.360;12.362;2022-11-15T03:53:21;10.80;;;7.90;;
11588;SDS011;5850;51.360;12.362;2022-11-15T03:55:50;11.13;;;8.37;;
11588;SDS011;5850;51.360;12.362;2022-11-15T03:58:18;10.20;;;8.13;;
11588;SDS011;5850;51.360;12.362;2022-11-15T04:00:47;11.93;;;8.57;;
11588;SDS011;5850;51.360;12.362;2022-11-15T04:03:16;10.47;;;8.20;;
11588;SDS011;5850;51.360;12.362;2022-11-15T04:05:44;11.63;;;8.43;;
11588;SDS011;5850;51.360;12.362;2022-11-15T04:08:13;11.47;;;8.30;;
11588;SDS011;5850;51.360;12.362;2022-11-15T04:10:41;11.43;;;8.23;;
11588;SDS011;5850;51.360;12.362;2022-11-15T04:13:09;10.07;;;7.73;;
11588;SDS011;5850;51.360;12.362;2022-11-15T04:15:54;9.10;;;7.13;;
11588;SDS011;5850;51.360;12.362;2022-11-15T04:18:22;12.17;;;8.20;;
11588;SDS011;5850;51.360;12.362;2022-11-15T04:20:51;9.87;;;7.70;;
11588;SDS011;5850;51.360;12.362;2022-11-15T04:23:37;10.43;;;7.80;;
11588;SDS011;5850;51.360;12.362;2022-11-15T04:26:28;9.90;;;7.80;;
11588;SDS011;5850;51.360;12.362;2022-11-15T04:28:56;10.17;;;7.57;;
11588;SDS011;5850;51.360;12.362;2022-11-15T04:35:29;10.00;;;7.93;;
11588;SDS011;5850;51.360;12.362;2022-11-15T04:37:57;10.60;;;7.67;;
11588;SDS011;5850;51.360;12.362;2022-11-15T04:40:26;11.93;;;7.43;;
11588;SDS011;5850;51.360;12.362;2022-11-15T04:42:54;9.30;;;7.43;;
11588;SDS011;5850;51.360;12.362;2022-11-15T04:45:29;10.17;;;7.40;;
11588;SDS011;5850;51.360;12.362;2022-11-15T04:47:58;10.67;;;7.30;;
11588;SDS011;5850;51.360;12.362;2022-11-15T04:50:27;11.57;;;8.17;;
11588;SDS011;5850;51.360;12.362;2022-11-15T04:52:55;10.70;;;7.57;;
11588;SDS011;5850;51.360;12.362;2022-11-15T04:55:24;10.63;;;8.10;;
11588;SDS011;5850;51.360;12.362;2022-11-15T04:57:58;10.13;;;7.90;;
11588;SDS011;5850;51.360;12.362;2022-11-15T05:00:28;11.20;;;8.13;;
11588;SDS011;5850;51.360;12.362;2022-11-15T05:02:57;10.90;;;8.53;;
11588;SDS011;5850;51.360;12.362;2022-11-15T05:05:43;9.97;;;7.60;;
11588;SDS011;5850;51.360;12.362;2022-11-15T05:08:11;10.47;;;8.27;;
11588;SDS011;5850;51.360;12.362;2022-11-15T05:10:53;12.10;;;7.43;;
11588;SDS011;5850;51.360;12.362;2022-11-15T05:13:21;10.40;;;7.77;;
11588;SDS011;5850;51.360;12.362;2022-11-15T05:15:50;9.50;;;7.90;;
11588;SDS011;5850;51.360;12.362;2022-11-15T05:18:18;12.53;;;8.13;;
11588;SDS011;5850;51.360;12.362;2022-11-15T05:20:49;10.00;;;7.80;;
11588;SDS011;5850;51.360;12.362;2022-11-15T05:23:17;10.70;;;7.90;;
11588;SDS011;5850;51.360;12.362;2022-11-15T05:25:46;9.40;;;7.57;;
11588;SDS011;5850;51.360;12.362;2022-11-15T05:28:14;10.93;;;8.23;;
11588;SDS011;5850;51.360;12.362;2022-11-15T05:30:42;9.97;;;7.67;;
11588;SDS011;5850;51.360;12.362;2022-11-15T05:33:11;10.40;;;7.80;;
11588;SDS011;5850;51.360;12.362;2022-11-15T05:35:40;12.27;;;7.93;;
11588;SDS011;5850;51.360;12.362;2022-11-15T05:38:14;10.77;;;7.47;;
11588;SDS011;5850;51.360;12.362;2022-11-15T05:40:42;10.87;;;8.23;;
11588;SDS011;5850;51.360;12.362;2022-11-15T05:43:11;10.80;;;8.10;;
11588;SDS011;5850;51.360;12.362;2022-11-15T05:45:40;13.33;;;8.47;;
11588;SDS011;5850;51.360;12.362;2022-11-15T05:48:08;11.20;;;8.10;;
11588;SDS011;5850;51.360;12.362;2022-11-15T05:50:38;11.70;;;8.37;;
11588;SDS011;5850;51.360;12.362;2022-11-15T05:53:12;10.70;;;7.97;;
11588;SDS011;5850;51.360;12.362;2022-11-15T05:55:44;11.07;;;8.60;;
11588;SDS011;5850;51.360;12.362;2022-11-15T05:58:12;11.43;;;8.13;;
11588;SDS011;5850;51.360;12.362;2022-11-15T06:00:40;11.07;;;7.90;;
11588;SDS011;5850;51.360;12.362;2022-11-15T06:03:09;11.30;;;7.97;;
11588;SDS011;5850;51.360;12.362;2022-11-15T06:05:40;12.53;;;8.17;;
11588;SDS011;5850;51.360;12.362;2022-11-15T06:08:12;10.27;;;8.17;;
11588;SDS011;5850;51.360;12.362;2022-11-15T06:10:43;12.63;;;7.77;;
11588;SDS011;5850;51.360;12.362;2022-11-15T06:13:12;11.93;;;8.63;;
11588;SDS011;5850;51.360;12.362;2022-11-15T06:15:40;11.37;;;8.13;;
11588;SDS011;5850;51.360;12.362;2022-11-15T06:18:08;11.90;;;7.90;;
11588;SDS011;5850;51.360;12.362;2022-11-15T06:20:37;11.37;;;8.77;;
11588;SDS011;5850;51.360;12.362;2022-11-15T06:23:05;10.83;;;7.97;;
11588;SDS011;5850;51.360;12.362;2022-11-15T06:25:34;11.07;;;8.33;;
11588;SDS011;5850;51.360;12.362;2022-11-15T06:28:02;11.97;;;8.17;;
11588;SDS011;5850;51.360;12.362;2022-11-15T06:30:31;13.13;;;8.73;;
11588;SDS011;5850;51.360;12.362;2022-11-15T06:33:00;11.57;;;8.33;;
11588;SDS011;5850;51.360;12.362;2022-11-15T06:35:30;12.03;;;8.20;;
11588;SDS011;5850;51.360;12.362;2022-11-15T06:38:06;12.70;;;8.67;;
11588;SDS011;5850;51.360;12.362;2022-11-15T06:40:37;13.50;;;8.63;;
11588;SDS011;5850;51.360;12.362;2022-11-15T06:43:06;11.70;;;8.53;;
11588;SDS011;5850;51.360;12.362;2022-11-15T06:45:34;14.93;;;8.83;;
11588;SDS011;5850;51.360;12.362;2022-11-15T06:48:03;11.27;;;8.57;;
11588;SDS011;5850;51.360;12.362;2022-11-15T06:50:31;11.97;;;8.70;;
11588;SDS011;5850;51.360;12.362;2022-11-15T06:53:00;12.00;;;8.80;;
11588;SDS011;5850;51.360;12.362;2022-11-15T06:55:31;13.33;;;8.73;;
11588;SDS011;5850;51.360;12.362;2022-11-15T06:57:59;13.50;;;9.17;;
11588;SDS011;5850;51.360;12.362;2022-11-15T07:00:27;10.93;;;8.60;;
11588;SDS011;5850;51.360;12.362;2022-11-15T07:02:59;10.40;;;8.03;;
11588;SDS011;5850;51.360;12.362;2022-11-15T07:05:28;12.53;;;8.47;;
11588;SDS011;5850;51.360;12.362;2022-11-15T07:07:56;11.43;;;8.97;;
11588;SDS011;5850;51.360;12.362;2022-11-15T07:10:27;11.00;;;8.50;;
11588;SDS011;5850;51.360;12.362;2022-11-15T07:12:55;12.93;;;8.17;;
11588;SDS011;5850;51.360;12.362;2022-11-15T07:15:24;12.23;;;8.70;;
11588;SDS011;5850;51.360;12.362;2022-11-15T07:17:53;11.37;;;8.50;;
11588;SDS011;5850;51.360;12.362;2022-11-15T07:20:21;11.40;;;8.97;;
11588;SDS011;5850;51.360;12.362;2022-11-15T07:22:50;12.80;;;9.27;;
11588;SDS011;5850;51.360;12.362;2022-11-15T07:25:18;12.37;;;9.33;;
11588;SDS011;5850;51.360;12.362;2022-11-15T07:27:53;11.00;;;8.53;;
11588;SDS011;5850;51.360;12.362;2022-11-15T07:30:23;11.03;;;8.33;;
11588;SDS011;5850;51.360;12.362;2022-11-15T07:32:56;11.37;;;8.23;;
11588;SDS011;5850;51.360;12.362;2022-11-15T07:35:26;12.13;;;8.37;;
11588;SDS011;5850;51.360;12.362;2022-11-15T07:37:56;10.53;;;7.93;;
11588;SDS011;5850;51.360;12.362;2022-11-15T07:40:30;11.47;;;8.50;;
11588;SDS011;5850;51.360;12.362;2022-11-15T07:43:03;10.40;;;8.67;;
11588;SDS011;5850;51.360;12.362;2022-11-15T07:45:33;12.60;;;8.90;;
11588;SDS011;5850;51.360;12.362;2022-11-15T07:48:01;17.13;;;10.90;;
11588;SDS011;5850;51.360;12.362;2022-11-15T07:50:30;19.60;;;14.77;;
11588;SDS011;5850;51.360;12.362;2022-11-15T07:52:59;16.67;;;12.00;;
11588;SDS011;5850;51.360;12.362;2022-11-15T07:55:28;14.30;;;9.67;;
11588;SDS011;5850;51.360;12.362;2022-11-15T07:58:14;12.90;;;9.50;;
11588;SDS011;5850;51.360;12.362;2022-11-15T08:00:43;11.87;;;8.03;;
11588;SDS011;5850;51.360;12.362;2022-11-15T08:03:12;12.47;;;8.50;;
11588;SDS011;5850;51.360;12.362;2022-11-15T08:05:43;15.17;;;8.27;;
11588;SDS011;5850;51.360;12.362;2022-11-15T08:08:17;9.47;;;8.23;;
11588;SDS011;5850;51.360;12.362;2022-11-15T08:10:48;9.60;;;7.70;;
11588;SDS011;5850;51.360;12.362;2022-11-15T08:13:17;11.37;;;7.37;;
11588;SDS011;5850;51.360;12.362;2022-11-15T08:15:46;11.00;;;6.83;;
11588;SDS011;5850;51.360;12.362;2022-11-15T08:18:22;9.83;;;7.87;;
11588;SDS011;5850;51.360;12.362;2022-11-15T08:20:50;10.00;;;6.30;;
11588;SDS011;5850;51.360;12.362;2022-11-15T08:23:19;10.27;;;7.37;;
11588;SDS011;5850;51.360;12.362;2022-11-15T08:25:47;10.77;;;7.10;;
11588;SDS011;5850;51.360;12.362;2022-11-15T08:28:16;10.17;;;6.83;;
11588;SDS011;5850;51.360;12.362;2022-11-15T08:30:45;7.40;;;6.60;;
11588;SDS011;5850;51.360;12.362;2022-11-15T08:33:13;9.10;;;7.10;;
11588;SDS011;5850;51.360;12.362;2022-11-15T08:35:42;7.47;;;6.47;;
11588;SDS011;5850;51.360;12.362;2022-11-15T08:38:11;11.13;;;6.53;;
11588;SDS011;5850;51.360;12.362;2022-11-15T08:40:40;9.60;;;6.70;;
11588;SDS011;5850;51.360;12.362;2022-11-15T08:43:08;6.90;;;5.60;;
11588;SDS011;5850;51.360;12.362;2022-11-15T08:45:37;9.20;;;6.77;;
11588;SDS011;5850;51.360;12.362;2022-11-15T08:48:07;7.03;;;5.60;;
11588;SDS011;5850;51.360;12.362;2022-11-15T08:50:35;7.50;;;6.27;;
11588;SDS011;5850;51.360;12.362;2022-11-15T08:53:07;6.00;;;5.40;;
11588;SDS011;5850;51.360;12.362;2022-11-15T08:55:36;6.90;;;5.87;;
11588;SDS011;5850;51.360;12.362;2022-11-15T08:58:29;8.73;;;6.00;;
11588;SDS011;5850;51.360;12.362;2022-11-15T09:00:58;7.77;;;6.30;;
11588;SDS011;5850;51.360;12.362;2022-11-15T09:03:26;9.83;;;6.30;;
11588;SDS011;5850;51.360;12.362;2022-11-15T09:05:58;8.60;;;5.27;;
11588;SDS011;5850;51.360;12.362;2022-11-15T09:08:31;8.50;;;5.60;;
11588;SDS011;5850;51.360;12.362;2022-11-15T09:11:13;6.70;;;5.70;;
11588;SDS011;5850;51.360;12.362;2022-11-15T09:13:46;8.00;;;5.83;;
11588;SDS011;5850;51.360;12.362;2022-11-15T09:16:14;8.10;;;5.27;;
11588;SDS011;5850;51.360;12.362;2022-11-15T09:18:43;6.50;;;5.80;;
11588;SDS011;5850;51.360;12.362;2022-11-15T09:21:11;6.47;;;5.50;;
11588;SDS011;5850;51.360;12.362;2022-11-15T09:23:40;7.50;;;5.77;;
11588;SDS011;5850;51.360;12.362;2022-11-15T09:26:09;10.57;;;6.90;;
11588;SDS011;5850;51.360;12.362;2022-11-15T09:28:37;13.80;;;10.20;;
11588;SDS011;5850;51.360;12.362;2022-11-15T09:31:08;9.77;;;7.53;;
11588;SDS011;5850;51.360;12.362;2022-11-15T09:33:36;6.70;;;5.17;;
11588;SDS011;5850;51.360;12.362;2022-11-15T09:36:06;8.30;;;6.40;;
11588;SDS011;5850;51.360;12.362;2022-11-15T09:38:35;14.63;;;10.57;;
11588;SDS011;5850;51.360;12.362;2022-11-15T09:46:38;8.90;;;6.70;;
11588;SDS011;5850;51.360;12.362;2022-11-15T09:49:22;9.73;;;7.30;;
11588;SDS011;5850;51.360;12.362;2022-11-15T09:51:53;8.63;;;5.97;;
11588;SDS011;5850;51.360;12.362;2022-11-15T09:54:27;6.23;;;4.87;;
11588;SDS011;5850;51.360;12.362;2022-11-15T10:00:30;7.53;;;4.43;;
11588;SDS011;5850;51.360;12.362;2022-11-15T10:03:14;5.53;;;3.90;;
11588;SDS011;5850;51.360;12.362;2022-11-15T10:05:52;5.63;;;4.20;;
11588;SDS011;5850;51.360;12.362;2022-11-15T10:11:16;6.17;;;4.30;;
11588;SDS011;5850;51.360;12.362;2022-11-15T10:14:17;8.53;;;3.97;;
11588;SDS011;5850;51.360;12.362;2022-11-15T10:17:11;6.23;;;4.50;;
11588;SDS011;5850;51.360;12.362;2022-11-15T10:21:02;4.87;;;3.77;;
11588;SDS011;5850;51.360;12.362;2022-11-15T10:23:16;4.67;;;3.77;;
11588;SDS011;5850;51.360;12.362;2022-11-15T10:25:48;4.33;;;3.10;;
11588;SDS011;5850;51.360;12.362;2022-11-15T10:28:32;6.20;;;3.90;;
11588;SDS011;5850;51.360;12.362;2022-11-15T10:31:10;4.20;;;3.50;;
11588;SDS011;5850;51.360;12.362;2022-11-15T10:36:39;5.87;;;4.73;;
11588;SDS011;5850;51.360;12.362;2022-11-15T10:39:32;5.97;;;4.87;;
11588;SDS011;5850;51.360;12.362;2022-11-15T10:42:15;5.70;;;3.93;;
11588;SDS011;5850;51.360;12.362;2022-11-15T10:44:54;6.57;;;4.20;;
11588;SDS011;5850;51.360;12.362;2022-11-15T10:47:24;3.73;;;3.40;;
11588;SDS011;5850;51.360;12.362;2022-11-15T10:50:25;9.00;;;4.63;;
11588;SDS011;5850;51.360;12.362;2022-11-15T10:52:57;6.30;;;4.40;;
11588;SDS011;5850;51.360;12.362;2022-11-15T10:55:27;5.00;;;4.50;;
11588;SDS011;5850;51.360;12.362;2022-11-15T10:58:03;5.57;;;4.27;;
11588;SDS011;5850;51.360;12.362;2022-11-15T11:00:48;4.93;;;4.20;;
11588;SDS011;5850;51.360;12.362;2022-11-15T11:03:27;7.27;;;4.50;;
11588;SDS011;5850;51.360;12.362;2022-11-15T11:06:15;5.77;;;5.17;;
11588;SDS011;5850;51.360;12.362;2022-11-15T11:08:52;8.07;;;4.90;;
11588;SDS011;5850;51.360;12.362;2022-11-15T11:11:21;6.67;;;4.57;;
11588;SDS011;5850;51.360;12.362;2022-11-15T11:13:50;7.10;;;4.00;;
11588;SDS011;5850;51.360;12.362;2022-11-15T11:16:21;9.20;;;4.03;;
11588;SDS011;5850;51.360;12.362;2022-11-15T11:19:13;6.23;;;4.27;;
11588;SDS011;5850;51.360;12.362;2022-11-15T11:22:41;9.50;;;6.60;;
11588;SDS011;5850;51.360;12.362;2022-11-15T11:25:14;9.67;;;5.67;;
11588;SDS011;5850;51.360;12.362;2022-11-15T11:28:23;8.67;;;6.73;;
11588;SDS011;5850;51.360;12.362;2022-11-15T11:31:12;15.30;;;8.87;;
11588;SDS011;5850;51.360;12.362;2022-11-15T11:33:56;17.97;;;10.27;;
11588;SDS011;5850;51.360;12.362;2022-11-15T11:39:36;15.67;;;8.53;;
11588;SDS011;5850;51.360;12.362;2022-11-15T11:42:14;10.20;;;5.93;;
11588;SDS011;5850;51.360;12.362;2022-11-15T11:45:24;10.23;;;5.47;;
11588;SDS011;5850;51.360;12.362;2022-11-15T11:48:24;7.80;;;5.30;;
11588;SDS011;5850;51.360;12.362;2022-11-15T11:51:21;10.37;;;6.80;;
11588;SDS011;5850;51.360;12.362;2022-11-15T11:54:03;8.80;;;6.73;;
11588;SDS011;5850;51.360;12.362;2022-11-15T11:56:39;7.83;;;4.83;;
11588;SDS011;5850;51.360;12.362;2022-11-15T12:02:11;6.00;;;4.10;;
11588;SDS011;5850;51.360;12.362;2022-11-15T12:14:32;6.30;;;4.57;;
11588;SDS011;5850;51.360;12.362;2022-11-15T12:17:22;11.20;;;5.77;;
11588;SDS011;5850;51.360;12.362;2022-11-15T12:19:56;5.37;;;3.50;;
11588;SDS011;5850;51.360;12.362;2022-11-15T12:25:08;9.53;;;6.07;;
11588;SDS011;5850;51.360;12.362;2022-11-15T12:27:59;5.97;;;4.60;;
11588;SDS011;5850;51.360;12.362;2022-11-15T12:30:53;7.00;;;3.90;;
11588;SDS011;5850;51.360;12.362;2022-11-15T12:34:15;7.03;;;4.30;;
11588;SDS011;5850;51.360;12.362;2022-11-15T12:36:47;5.73;;;4.07;;
11588;SDS011;5850;51.360;12.362;2022-11-15T12:39:18;5.40;;;4.37;;
11588;SDS011;5850;51.360;12.362;2022-11-15T12:47:25;5.27;;;3.50;;
11588;SDS011;5850;51.360;12.362;2022-11-15T12:49:54;4.73;;;4.33;;
11588;SDS011;5850;51.360;12.362;2022-11-15T12:52:22;6.97;;;4.40;;
11588;SDS011;5850;51.360;12.362;2022-11-15T12:54:55;6.87;;;4.47;;
11588;SDS011;5850;51.360;12.362;2022-11-15T12:57:29;4.20;;;3.50;;
11588;SDS011;5850;51.360;12.362;2022-11-15T13:00:04;4.00;;;3.47;;
11588;SDS011;5850;51.360;12.362;2022-11-15T13:02:47;6.00;;;3.27;;
11588;SDS011;5850;51.360;12.362;2022-11-15T13:13:10;5.47;;;4.17;;
11588;SDS011;5850;51.360;12.362;2022-11-15T13:15:51;6.50;;;4.27;;
11588;SDS011;5850;51.360;12.362;2022-11-15T13:20:57;8.43;;;4.50;;
11588;SDS011;5850;51.360;12.362;2022-11-15T13:23:28;6.43;;;3.77;;
11588;SDS011;5850;51.360;12.362;2022-11-15T13:31:28;8.93;;;4.03;;
11588;SDS011;5850;51.360;12.362;2022-11-15T13:34:39;11.43;;;5.53;;
11588;SDS011;5850;51.360;12.362;2022-11-15T13:39:48;8.73;;;5.60;;
11588;SDS011;5850;51.360;12.362;2022-11-15T13:42:18;9.80;;;4.80;;
11588;SDS011;5850;51.360;12.362;2022-11-15T13:44:55;10.00;;;5.47;;
11588;SDS011;5850;51.360;12.362;2022-11-15T13:47:30;11.63;;;5.40;;
11588;SDS011;5850;51.360;12.362;2022-11-15T13:49:59;10.47;;;6.20;;
11588;SDS011;5850;51.360;12.362;2022-11-15T13:52:33;5.13;;;3.87;;
11588;SDS011;5850;51.360;12.362;2022-11-15T13:55:13;6.87;;;3.60;;
11588;SDS011;5850;51.360;12.362;2022-11-15T13:57:49;4.50;;;3.83;;
11588;SDS011;5850;51.360;12.362;2022-11-15T14:00:39;6.93;;;3.63;;
11588;SDS011;5850;51.360;12.362;2022-11-15T14:06:05;5.63;;;3.70;;
11588;SDS011;5850;51.360;12.362;2022-11-15T14:08:42;6.40;;;3.33;;
11588;SDS011;5850;51.360;12.362;2022-11-15T14:11:30;11.20;;;4.00;;
11588;SDS011;5850;51.360;12.362;2022-11-15T14:16:42;8.07;;;3.67;;
11588;SDS011;5850;51.360;12.362;2022-11-15T14:22:09;6.27;;;4.10;;
11588;SDS011;5850;51.360;12.362;2022-11-15T14:24:39;7.23;;;3.70;;
11588;SDS011;5850;51.360;12.362;2022-11-15T14:27:28;6.07;;;3.87;;
11588;SDS011;5850;51.360;12.362;2022-11-15T14:29:56;4.07;;;3.40;;
11588;SDS011;5850;51.360;12.362;2022-11-15T14:32:26;5.10;;;3.90;;
11588;SDS011;5850;51.360;12.362;2022-11-15T14:34:57;7.10;;;3.70;;
11588;SDS011;5850;51.360;12.362;2022-11-15T14:37:31;6.43;;;3.23;;
11588;SDS011;5850;51.360;12.362;2022-11-15T14:40:02;4.83;;;3.73;;
11588;SDS011;5850;51.360;12.362;2022-11-15T14:42:35;7.67;;;4.53;;
11588;SDS011;5850;51.360;12.362;2022-11-15T14:45:09;6.17;;;4.40;;
11588;SDS011;5850;51.360;12.362;2022-11-15T14:47:46;5.37;;;4.17;;
11588;SDS011;5850;51.360;12.362;2022-11-15T14:50:17;7.77;;;4.10;;
11588;SDS011;5850;51.360;12.362;2022-11-15T14:52:47;6.17;;;4.27;;
11588;SDS011;5850;51.360;12.362;2022-11-15T14:55:17;8.07;;;3.87;;
11588;SDS011;5850;51.360;12.362;2022-11-15T14:57:58;7.53;;;4.00;;
11588;SDS011;5850;51.360;12.362;2022-11-15T15:00:29;4.97;;;3.93;;
11588;SDS011;5850;51.360;12.362;2022-11-15T15:03:01;4.60;;;4.03;;
11588;SDS011;5850;51.360;12.362;2022-11-15T15:05:31;8.40;;;4.87;;
11588;SDS011;5850;51.360;12.362;2022-11-15T15:08:03;6.13;;;4.30;;
11588;SDS011;5850;51.360;12.362;2022-11-15T15:10:34;4.77;;;4.23;;
11588;SDS011;5850;51.360;12.362;2022-11-15T15:13:13;6.23;;;4.50;;
11588;SDS011;5850;51.360;12.362;2022-11-15T15:15:49;7.03;;;4.53;;
11588;SDS011;5850;51.360;12.362;2022-11-15T15:18:21;8.30;;;4.20;;
11588;SDS011;5850;51.360;12.362;2022-11-15T15:20:54;6.57;;;4.60;;
11588;SDS011;5850;51.360;12.362;2022-11-15T15:23:26;8.73;;;4.53;;
11588;SDS011;5850;51.360;12.362;2022-11-15T15:25:57;8.97;;;4.50;;
11588;SDS011;5850;51.360;12.362;2022-11-15T15:28:25;8.83;;;5.10;;
11588;SDS011;5850;51.360;12.362;2022-11-15T15:30:59;9.10;;;6.20;;
11588;SDS011;5850;51.360;12.362;2022-11-15T15:33:28;10.20;;;6.23;;
11588;SDS011;5850;51.360;12.362;2022-11-15T15:35:56;10.27;;;6.73;;
11588;SDS011;5850;51.360;12.362;2022-11-15T15:38:25;10.53;;;7.70;;
11588;SDS011;5850;51.360;12.362;2022-11-15T15:40:53;14.60;;;7.33;;
11588;SDS011;5850;51.360;12.362;2022-11-15T15:43:22;9.43;;;6.13;;
11588;SDS011;5850;51.360;12.362;2022-11-15T15:45:50;9.50;;;6.67;;
11588;SDS011;5850;51.360;12.362;2022-11-15T15:48:19;8.67;;;6.40;;
11588;SDS011;5850;51.360;12.362;2022-11-15T15:50:47;8.13;;;6.37;;
11588;SDS011;5850;51.360;12.362;2022-11-15T15:53:16;12.37;;;7.20;;
11588;SDS011;5850;51.360;12.362;2022-11-15T15:55:44;9.90;;;7.17;;
11588;SDS011;5850;51.360;12.362;2022-11-15T15:58:13;18.13;;;9.07;;
11588;SDS011;5850;51.360;12.362;2022-11-15T16:00:41;11.03;;;8.23;;
11588;SDS011;5850;51.360;12.362;2022-11-15T16:03:09;11.27;;;8.17;;
11588;SDS011;5850;51.360;12.362;2022-11-15T16:05:38;12.60;;;7.77;;
11588;SDS011;5850;51.360;12.362;2022-11-15T16:08:17;11.83;;;7.77;;
11588;SDS011;5850;51.360;12.362;2022-11-15T16:10:52;11.93;;;7.60;;
11588;SDS011;5850;51.360;12.362;2022-11-15T16:13:21;10.63;;;6.97;;
11588;SDS011;5850;51.360;12.362;2022-11-15T16:15:50;13.83;;;7.27;;
11588;SDS011;5850;51.360;12.362;2022-11-15T16:18:20;10.70;;;7.33;;
11588;SDS011;5850;51.360;12.362;2022-11-15T16:20:49;9.53;;;6.73;;
11588;SDS011;5850;51.360;12.362;2022-11-15T16:23:20;9.10;;;6.80;;
11588;SDS011;5850;51.360;12.362;2022-11-15T16:25:51;9.63;;;6.97;;
11588;SDS011;5850;51.360;12.362;2022-11-15T16:28:28;12.10;;;7.63;;
11588;SDS011;5850;51.360;12.362;2022-11-15T16:33:29;13.10;;;8.43;;
11588;SDS011;5850;51.360;12.362;2022-11-15T16:35:59;13.07;;;8.30;;
11588;SDS011;5850;51.360;12.362;2022-11-15T16:38:27;15.50;;;8.93;;
11588;SDS011;5850;51.360;12.362;2022-11-15T16:40:57;13.33;;;8.50;;
11588;SDS011;5850;51.360;12.362;2022-11-15T16:43:25;16.13;;;9.60;;
11588;SDS011;5850;51.360;12.362;2022-11-15T16:45:54;12.00;;;8.43;;
11588;SDS011;5850;51.360;12.362;2022-11-15T16:48:26;13.00;;;8.47;;
11588;SDS011;5850;51.360;12.362;2022-11-15T16:50:56;11.40;;;8.27;;
11588;SDS011;5850;51.360;12.362;2022-11-15T16:53:26;10.57;;;8.03;;
11588;SDS011;5850;51.360;12.362;2022-11-15T16:55:54;10.13;;;6.90;;
11588;SDS011;5850;51.360;12.362;2022-11-15T16:58:23;13.03;;;8.10;;
11588;SDS011;5850;51.360;12.362;2022-11-15T17:01:09;10.63;;;7.43;;